Aviation Digital Data Service (ADDS)

Output produced by METARs form (1740 UTC 30 October 2020)
found at http://www.aviationweather.gov/metar/data/
 
KHKY 301653Z 30006KT 10SM CLR 16/03 A3008 RMK AO2 SLP170 T01560033
KHKY 301739Z 3018/3118 30010G16KT P6SM FEW050 
     FM302200 35007KT P6SM SKC 
     FM310300 03004KT P6SM SKC 
     FM311500 06006KT P6SM SCT120